sensor_id;sensor_type;location;lat;lon;timestamp;P1;durP1;ratioP1;P2;durP2;ratioP2
43813;SDS011;29669;55.706;37.656;2023-10-09T00:00:14;0.32;;;0.32;;
43813;SDS011;29669;55.706;37.656;2023-10-09T00:02:58;0.70;;;0.70;;
43813;SDS011;29669;55.706;37.656;2023-10-09T00:05:28;0.70;;;0.70;;
43813;SDS011;29669;55.706;37.656;2023-10-09T00:08:13;0.75;;;0.73;;
43813;SDS011;29669;55.706;37.656;2023-10-09T00:10:50;1.73;;;0.57;;
43813;SDS011;29669;55.706;37.656;2023-10-09T00:13:22;0.77;;;0.77;;
43813;SDS011;29669;55.706;37.656;2023-10-09T00:15:57;0.70;;;0.70;;
43813;SDS011;29669;55.706;37.656;2023-10-09T00:18:36;0.90;;;0.90;;
43813;SDS011;29669;55.706;37.656;2023-10-09T00:21:05;0.90;;;0.90;;
43813;SDS011;29669;55.706;37.656;2023-10-09T00:23:40;0.90;;;0.88;;
43813;SDS011;29669;55.706;37.656;2023-10-09T00:26:09;1.05;;;0.90;;
43813;SDS011;29669;55.706;37.656;2023-10-09T00:28:50;0.98;;;0.98;;
43813;SDS011;29669;55.706;37.656;2023-10-09T00:31:20;1.10;;;1.00;;
43813;SDS011;29669;55.706;37.656;2023-10-09T00:33:57;1.17;;;1.08;;
43813;SDS011;29669;55.706;37.656;2023-10-09T00:36:35;1.50;;;1.10;;
43813;SDS011;29669;55.706;37.656;2023-10-09T00:39:19;8.35;;;1.58;;
43813;SDS011;29669;55.706;37.656;2023-10-09T00:42:11;1.70;;;1.08;;
43813;SDS011;29669;55.706;37.656;2023-10-09T00:44:44;1.15;;;1.05;;
43813;SDS011;29669;55.706;37.656;2023-10-09T00:47:15;1.55;;;1.45;;
43813;SDS011;29669;55.706;37.656;2023-10-09T00:52:45;1.17;;;1.08;;
43813;SDS011;29669;55.706;37.656;2023-10-09T00:55:18;20.13;;;2.17;;
43813;SDS011;29669;55.706;37.656;2023-10-09T00:58:05;2.70;;;1.70;;
43813;SDS011;29669;55.706;37.656;2023-10-09T01:00:41;1.17;;;1.08;;
43813;SDS011;29669;55.706;37.656;2023-10-09T01:03:15;1.08;;;1.00;;
43813;SDS011;29669;55.706;37.656;2023-10-09T01:05:47;1.02;;;1.00;;
43813;SDS011;29669;55.706;37.656;2023-10-09T01:08:37;6.80;;;1.30;;
43813;SDS011;29669;55.706;37.656;2023-10-09T01:16:17;9.32;;;1.42;;
43813;SDS011;29669;55.706;37.656;2023-10-09T01:18:52;1.20;;;1.10;;
43813;SDS011;29669;55.706;37.656;2023-10-09T01:21:25;11.60;;;1.80;;
43813;SDS011;29669;55.706;37.656;2023-10-09T01:23:55;2.35;;;1.30;;
43813;SDS011;29669;55.706;37.656;2023-10-09T01:26:35;1.70;;;1.60;;
43813;SDS011;29669;55.706;37.656;2023-10-09T01:29:13;3.15;;;1.33;;
43813;SDS011;29669;55.706;37.656;2023-10-09T01:31:51;2.15;;;1.50;;
43813;SDS011;29669;55.706;37.656;2023-10-09T01:34:24;2.05;;;1.75;;
43813;SDS011;29669;55.706;37.656;2023-10-09T01:37:13;1.73;;;1.63;;
43813;SDS011;29669;55.706;37.656;2023-10-09T01:39:58;1.73;;;1.42;;
43813;SDS011;29669;55.706;37.656;2023-10-09T01:42:29;1.80;;;1.55;;
43813;SDS011;29669;55.706;37.656;2023-10-09T01:44:58;2.15;;;1.67;;
43813;SDS011;29669;55.706;37.656;2023-10-09T01:47:26;1.77;;;1.50;;
43813;SDS011;29669;55.706;37.656;2023-10-09T01:50:00;2.50;;;1.60;;
43813;SDS011;29669;55.706;37.656;2023-10-09T01:52:32;1.60;;;1.45;;
43813;SDS011;29669;55.706;37.656;2023-10-09T01:55:03;12.60;;;2.00;;
43813;SDS011;29669;55.706;37.656;2023-10-09T01:57:51;2.92;;;1.70;;
43813;SDS011;29669;55.706;37.656;2023-10-09T02:00:19;2.50;;;1.65;;
43813;SDS011;29669;55.706;37.656;2023-10-09T02:02:51;2.72;;;1.85;;
43813;SDS011;29669;55.706;37.656;2023-10-09T02:05:20;40.08;;;2.88;;
43813;SDS011;29669;55.706;37.656;2023-10-09T02:07:47;2.15;;;1.70;;
43813;SDS011;29669;55.706;37.656;2023-10-09T02:10:25;3.10;;;2.10;;
43813;SDS011;29669;55.706;37.656;2023-10-09T02:12:58;2.28;;;1.38;;
43813;SDS011;29669;55.706;37.656;2023-10-09T02:15:44;1.65;;;1.52;;
43813;SDS011;29669;55.706;37.656;2023-10-09T02:18:15;1.90;;;1.52;;
43813;SDS011;29669;55.706;37.656;2023-10-09T02:20:46;2.15;;;1.50;;
43813;SDS011;29669;55.706;37.656;2023-10-09T02:23:28;1.45;;;1.27;;
43813;SDS011;29669;55.706;37.656;2023-10-09T02:26:08;3.17;;;2.10;;
43813;SDS011;29669;55.706;37.656;2023-10-09T02:28:37;2.88;;;1.77;;
43813;SDS011;29669;55.706;37.656;2023-10-09T02:31:11;1.58;;;1.33;;
43813;SDS011;29669;55.706;37.656;2023-10-09T02:33:40;2.50;;;1.40;;
43813;SDS011;29669;55.706;37.656;2023-10-09T02:36:08;5.22;;;1.50;;
43813;SDS011;29669;55.706;37.656;2023-10-09T02:38:37;2.58;;;1.20;;
43813;SDS011;29669;55.706;37.656;2023-10-09T02:41:08;2.35;;;1.77;;
43813;SDS011;29669;55.706;37.656;2023-10-09T02:43:39;1.73;;;1.60;;
43813;SDS011;29669;55.706;37.656;2023-10-09T02:46:19;1.52;;;1.40;;
43813;SDS011;29669;55.706;37.656;2023-10-09T02:48:57;2.92;;;2.08;;
43813;SDS011;29669;55.706;37.656;2023-10-09T02:51:26;1.92;;;1.60;;
43813;SDS011;29669;55.706;37.656;2023-10-09T02:53:55;1.60;;;1.50;;
43813;SDS011;29669;55.706;37.656;2023-10-09T02:56:25;1.98;;;1.73;;
43813;SDS011;29669;55.706;37.656;2023-10-09T02:59:10;3.05;;;1.60;;
43813;SDS011;29669;55.706;37.656;2023-10-09T03:01:39;1.92;;;1.52;;
43813;SDS011;29669;55.706;37.656;2023-10-09T03:04:08;1.67;;;1.58;;
43813;SDS011;29669;55.706;37.656;2023-10-09T03:06:42;1.70;;;1.45;;
43813;SDS011;29669;55.706;37.656;2023-10-09T03:09:19;2.30;;;1.80;;
43813;SDS011;29669;55.706;37.656;2023-10-09T03:14:30;1.20;;;1.10;;
43813;SDS011;29669;55.706;37.656;2023-10-09T03:17:02;2.08;;;1.50;;
43813;SDS011;29669;55.706;37.656;2023-10-09T03:19:31;2.03;;;1.35;;
43813;SDS011;29669;55.706;37.656;2023-10-09T03:22:06;2.50;;;1.40;;
43813;SDS011;29669;55.706;37.656;2023-10-09T03:24:39;1.73;;;1.30;;
43813;SDS011;29669;55.706;37.656;2023-10-09T03:27:17;2.50;;;1.33;;
43813;SDS011;29669;55.706;37.656;2023-10-09T03:29:46;1.30;;;1.20;;
43813;SDS011;29669;55.706;37.656;2023-10-09T03:32:19;1.08;;;1.00;;
43813;SDS011;29669;55.706;37.656;2023-10-09T03:34:49;1.45;;;1.35;;
43813;SDS011;29669;55.706;37.656;2023-10-09T03:37:18;1.10;;;1.00;;
43813;SDS011;29669;55.706;37.656;2023-10-09T03:39:55;2.13;;;1.27;;
43813;SDS011;29669;55.706;37.656;2023-10-09T03:42:23;1.85;;;1.35;;
43813;SDS011;29669;55.706;37.656;2023-10-09T03:44:52;1.50;;;1.30;;
43813;SDS011;29669;55.706;37.656;2023-10-09T03:47:21;2.17;;;1.60;;
43813;SDS011;29669;55.706;37.656;2023-10-09T03:49:55;1.52;;;1.17;;
43813;SDS011;29669;55.706;37.656;2023-10-09T03:52:23;3.60;;;1.40;;
43813;SDS011;29669;55.706;37.656;2023-10-09T03:54:56;1.73;;;1.25;;
43813;SDS011;29669;55.706;37.656;2023-10-09T03:57:28;1.92;;;1.40;;
43813;SDS011;29669;55.706;37.656;2023-10-09T04:00:42;1.13;;;0.93;;
43813;SDS011;29669;55.706;37.656;2023-10-09T04:03:21;1.73;;;1.00;;
43813;SDS011;29669;55.706;37.656;2023-10-09T04:05:58;2.45;;;1.40;;
43813;SDS011;29669;55.706;37.656;2023-10-09T04:21:52;1.13;;;1.00;;
43813;SDS011;29669;55.706;37.656;2023-10-09T04:25:14;1.00;;;1.00;;
43813;SDS011;29669;55.706;37.656;2023-10-09T04:29:48;2.35;;;1.35;;
43813;SDS011;29669;55.706;37.656;2023-10-09T04:32:48;2.10;;;1.50;;
43813;SDS011;29669;55.706;37.656;2023-10-09T04:35:48;1.65;;;1.30;;
43813;SDS011;29669;55.706;37.656;2023-10-09T04:38:57;1.77;;;1.67;;
43813;SDS011;29669;55.706;37.656;2023-10-09T04:44:59;1.30;;;1.20;;
43813;SDS011;29669;55.706;37.656;2023-10-09T04:47:35;1.92;;;1.48;;
43813;SDS011;29669;55.706;37.656;2023-10-09T04:50:06;1.90;;;1.70;;
43813;SDS011;29669;55.706;37.656;2023-10-09T04:52:53;1.85;;;1.33;;
43813;SDS011;29669;55.706;37.656;2023-10-09T04:55:32;9.23;;;2.00;;
43813;SDS011;29669;55.706;37.656;2023-10-09T04:58:05;2.10;;;1.50;;
43813;SDS011;29669;55.706;37.656;2023-10-09T05:00:40;19.05;;;1.85;;
43813;SDS011;29669;55.706;37.656;2023-10-09T05:03:08;6.70;;;1.70;;
43813;SDS011;29669;55.706;37.656;2023-10-09T05:05:56;2.85;;;1.90;;
43813;SDS011;29669;55.706;37.656;2023-10-09T05:08:28;1.98;;;1.77;;
43813;SDS011;29669;55.706;37.656;2023-10-09T05:11:01;1.95;;;1.70;;
43813;SDS011;29669;55.706;37.656;2023-10-09T05:13:34;3.80;;;1.45;;
43813;SDS011;29669;55.706;37.656;2023-10-09T05:16:13;1.42;;;1.33;;
43813;SDS011;29669;55.706;37.656;2023-10-09T05:18:49;1.90;;;1.40;;
43813;SDS011;29669;55.706;37.656;2023-10-09T05:22:21;1.95;;;1.30;;
43813;SDS011;29669;55.706;37.656;2023-10-09T05:25:20;1.42;;;1.08;;
43813;SDS011;29669;55.706;37.656;2023-10-09T05:28:35;1.40;;;1.30;;
43813;SDS011;29669;55.706;37.656;2023-10-09T05:31:39;2.05;;;1.42;;
43813;SDS011;29669;55.706;37.656;2023-10-09T05:34:24;1.58;;;1.48;;
43813;SDS011;29669;55.706;37.656;2023-10-09T05:37:02;1.05;;;1.00;;
43813;SDS011;29669;55.706;37.656;2023-10-09T05:39:49;6.60;;;3.05;;
43813;SDS011;29669;55.706;37.656;2023-10-09T05:42:34;2.47;;;1.73;;
43813;SDS011;29669;55.706;37.656;2023-10-09T05:45:13;2.28;;;2.03;;
43813;SDS011;29669;55.706;37.656;2023-10-09T05:47:47;2.85;;;1.90;;
43813;SDS011;29669;55.706;37.656;2023-10-09T05:50:25;1.90;;;1.60;;
43813;SDS011;29669;55.706;37.656;2023-10-09T05:53:04;1.83;;;1.70;;
43813;SDS011;29669;55.706;37.656;2023-10-09T05:59:35;4.43;;;2.40;;
43813;SDS011;29669;55.706;37.656;2023-10-09T06:03:37;2.70;;;1.80;;
43813;SDS011;29669;55.706;37.656;2023-10-09T06:06:22;4.40;;;2.72;;
43813;SDS011;29669;55.706;37.656;2023-10-09T06:09:25;3.58;;;2.20;;
43813;SDS011;29669;55.706;37.656;2023-10-09T06:12:16;2.65;;;2.05;;
43813;SDS011;29669;55.706;37.656;2023-10-09T06:15:00;2.88;;;2.08;;
43813;SDS011;29669;55.706;37.656;2023-10-09T06:18:00;6.25;;;3.55;;
43813;SDS011;29669;55.706;37.656;2023-10-09T06:20:49;2.22;;;1.90;;
43813;SDS011;29669;55.706;37.656;2023-10-09T06:23:36;2.30;;;2.10;;
43813;SDS011;29669;55.706;37.656;2023-10-09T06:26:26;2.78;;;1.67;;
43813;SDS011;29669;55.706;37.656;2023-10-09T06:28:54;1.42;;;1.33;;
43813;SDS011;29669;55.706;37.656;2023-10-09T06:31:57;2.25;;;1.70;;
43813;SDS011;29669;55.706;37.656;2023-10-09T06:34:29;3.72;;;1.50;;
43813;SDS011;29669;55.706;37.656;2023-10-09T06:37:02;3.55;;;2.00;;
43813;SDS011;29669;55.706;37.656;2023-10-09T06:39:59;2.58;;;1.80;;
43813;SDS011;29669;55.706;37.656;2023-10-09T06:48:28;1.60;;;1.50;;
43813;SDS011;29669;55.706;37.656;2023-10-09T06:51:06;6.40;;;1.50;;
43813;SDS011;29669;55.706;37.656;2023-10-09T06:53:54;1.75;;;1.30;;
43813;SDS011;29669;55.706;37.656;2023-10-09T06:56:47;2.00;;;1.60;;
43813;SDS011;29669;55.706;37.656;2023-10-09T07:26:44;4.30;;;1.75;;
43813;SDS011;29669;55.706;37.656;2023-10-09T07:29:04;1.40;;;1.30;;
43813;SDS011;29669;55.706;37.656;2023-10-09T07:31:55;4.00;;;1.52;;
43813;SDS011;29669;55.706;37.656;2023-10-09T07:43:03;4.38;;;2.10;;
43813;SDS011;29669;55.706;37.656;2023-10-09T07:45:56;4.00;;;1.77;;
43813;SDS011;29669;55.706;37.656;2023-10-09T07:48:26;2.03;;;1.50;;
43813;SDS011;29669;55.706;37.656;2023-10-09T07:50:56;1.95;;;1.40;;
43813;SDS011;29669;55.706;37.656;2023-10-09T07:53:27;2.35;;;1.45;;
43813;SDS011;29669;55.706;37.656;2023-10-09T07:58:54;1.67;;;1.20;;
43813;SDS011;29669;55.706;37.656;2023-10-09T08:01:30;3.10;;;1.70;;
43813;SDS011;29669;55.706;37.656;2023-10-09T08:04:04;3.17;;;2.35;;
43813;SDS011;29669;55.706;37.656;2023-10-09T08:06:44;1.20;;;1.15;;
43813;SDS011;29669;55.706;37.656;2023-10-09T08:09:31;2.50;;;1.90;;
43813;SDS011;29669;55.706;37.656;2023-10-09T08:12:15;5.28;;;1.88;;
43813;SDS011;29669;55.706;37.656;2023-10-09T08:15:10;3.53;;;1.77;;
43813;SDS011;29669;55.706;37.656;2023-10-09T08:17:51;3.72;;;1.65;;
43813;SDS011;29669;55.706;37.656;2023-10-09T08:20:39;4.88;;;2.17;;
43813;SDS011;29669;55.706;37.656;2023-10-09T08:23:25;4.55;;;2.30;;
43813;SDS011;29669;55.706;37.656;2023-10-09T08:26:22;2.70;;;1.80;;
43813;SDS011;29669;55.706;37.656;2023-10-09T08:28:56;2.72;;;1.88;;
43813;SDS011;29669;55.706;37.656;2023-10-09T08:31:53;7.07;;;1.60;;
43813;SDS011;29669;55.706;37.656;2023-10-09T08:34:24;1.50;;;1.35;;
43813;SDS011;29669;55.706;37.656;2023-10-09T08:36:55;5.03;;;2.25;;
43813;SDS011;29669;55.706;37.656;2023-10-09T08:39:23;1.70;;;1.50;;
43813;SDS011;29669;55.706;37.656;2023-10-09T08:41:54;2.75;;;1.33;;
43813;SDS011;29669;55.706;37.656;2023-10-09T08:44:25;1.42;;;1.30;;
43813;SDS011;29669;55.706;37.656;2023-10-09T08:47:02;4.57;;;1.70;;
43813;SDS011;29669;55.706;37.656;2023-10-09T08:49:31;0.73;;;0.73;;
43813;SDS011;29669;55.706;37.656;2023-10-09T08:52:04;2.45;;;1.10;;
43813;SDS011;29669;55.706;37.656;2023-10-09T08:54:33;3.63;;;2.15;;
43813;SDS011;29669;55.706;37.656;2023-10-09T08:57:01;4.57;;;2.08;;
43813;SDS011;29669;55.706;37.656;2023-10-09T08:59:29;5.05;;;2.30;;
43813;SDS011;29669;55.706;37.656;2023-10-09T09:01:57;3.42;;;1.67;;
43813;SDS011;29669;55.706;37.656;2023-10-09T09:04:40;3.70;;;2.08;;
43813;SDS011;29669;55.706;37.656;2023-10-09T09:07:25;2.03;;;1.88;;
43813;SDS011;29669;55.706;37.656;2023-10-09T09:09:59;2.72;;;1.50;;
43813;SDS011;29669;55.706;37.656;2023-10-09T09:12:48;1.95;;;1.33;;
43813;SDS011;29669;55.706;37.656;2023-10-09T09:15:28;2.55;;;1.60;;
43813;SDS011;29669;55.706;37.656;2023-10-09T09:18:03;4.00;;;1.60;;
43813;SDS011;29669;55.706;37.656;2023-10-09T09:20:38;2.13;;;1.70;;
43813;SDS011;29669;55.706;37.656;2023-10-09T09:23:13;3.20;;;1.80;;
43813;SDS011;29669;55.706;37.656;2023-10-09T09:25:42;2.15;;;1.48;;
43813;SDS011;29669;55.706;37.656;2023-10-09T09:28:27;2.08;;;1.30;;
43813;SDS011;29669;55.706;37.656;2023-10-09T09:31:06;1.50;;;1.40;;
43813;SDS011;29669;55.706;37.656;2023-10-09T09:33:40;3.60;;;2.30;;
43813;SDS011;29669;55.706;37.656;2023-10-09T09:36:10;4.05;;;2.33;;
43813;SDS011;29669;55.706;37.656;2023-10-09T09:38:41;3.97;;;2.72;;
43813;SDS011;29669;55.706;37.656;2023-10-09T09:41:17;2.08;;;1.48;;
43813;SDS011;29669;55.706;37.656;2023-10-09T09:43:55;2.08;;;1.50;;
43813;SDS011;29669;55.706;37.656;2023-10-09T09:46:24;2.10;;;1.55;;
43813;SDS011;29669;55.706;37.656;2023-10-09T09:49:02;2.78;;;1.80;;
43813;SDS011;29669;55.706;37.656;2023-10-09T09:51:47;4.93;;;1.52;;
43813;SDS011;29669;55.706;37.656;2023-10-09T09:54:22;2.25;;;1.33;;
43813;SDS011;29669;55.706;37.656;2023-10-09T09:57:27;1.42;;;1.30;;
43813;SDS011;29669;55.706;37.656;2023-10-09T10:01:15;2.25;;;1.38;;
43813;SDS011;29669;55.706;37.656;2023-10-09T10:05:16;1.63;;;1.52;;
43813;SDS011;29669;55.706;37.656;2023-10-09T10:09:09;1.40;;;1.30;;
43813;SDS011;29669;55.706;37.656;2023-10-09T10:13:01;1.33;;;1.20;;
43813;SDS011;29669;55.706;37.656;2023-10-09T10:18:32;1.63;;;1.48;;
43813;SDS011;29669;55.706;37.656;2023-10-09T10:21:10;1.83;;;1.40;;
43813;SDS011;29669;55.706;37.656;2023-10-09T10:41:58;2.80;;;1.70;;
43813;SDS011;29669;55.706;37.656;2023-10-09T10:44:41;1.13;;;1.02;;
43813;SDS011;29669;55.706;37.656;2023-10-09T10:47:43;1.80;;;1.10;;
43813;SDS011;29669;55.706;37.656;2023-10-09T10:50:28;1.60;;;1.00;;
43813;SDS011;29669;55.706;37.656;2023-10-09T10:53:21;5.53;;;2.60;;
43813;SDS011;29669;55.706;37.656;2023-10-09T10:56:10;1.40;;;1.30;;
43813;SDS011;29669;55.706;37.656;2023-10-09T10:59:13;2.50;;;1.45;;
43813;SDS011;29669;55.706;37.656;2023-10-09T11:01:52;1.35;;;1.20;;
43813;SDS011;29669;55.706;37.656;2023-10-09T11:04:28;1.05;;;0.80;;
43813;SDS011;29669;55.706;37.656;2023-10-09T11:07:03;1.27;;;1.02;;
43813;SDS011;29669;55.706;37.656;2023-10-09T11:09:49;1.30;;;1.20;;
43813;SDS011;29669;55.706;37.656;2023-10-09T11:12:31;3.00;;;1.13;;
43813;SDS011;29669;55.706;37.656;2023-10-09T11:15:14;2.75;;;1.85;;
43813;SDS011;29669;55.706;37.656;2023-10-09T11:18:01;3.47;;;1.58;;
43813;SDS011;29669;55.706;37.656;2023-10-09T11:20:51;2.17;;;1.35;;
43813;SDS011;29669;55.706;37.656;2023-10-09T11:23:31;3.05;;;1.40;;
43813;SDS011;29669;55.706;37.656;2023-10-09T11:26:04;2.83;;;1.80;;
43813;SDS011;29669;55.706;37.656;2023-10-09T11:29:09;2.30;;;1.60;;
43813;SDS011;29669;55.706;37.656;2023-10-09T11:32:05;3.33;;;1.40;;
43813;SDS011;29669;55.706;37.656;2023-10-09T11:34:40;1.90;;;1.75;;
43813;SDS011;29669;55.706;37.656;2023-10-09T11:39:53;2.80;;;1.38;;
43813;SDS011;29669;55.706;37.656;2023-10-09T11:42:26;2.40;;;1.42;;
43813;SDS011;29669;55.706;37.656;2023-10-09T11:45:21;3.55;;;1.40;;
43813;SDS011;29669;55.706;37.656;2023-10-09T11:47:55;0.77;;;0.77;;
43813;SDS011;29669;55.706;37.656;2023-10-09T11:50:54;0.73;;;0.73;;
43813;SDS011;29669;55.706;37.656;2023-10-09T11:53:48;1.48;;;1.25;;
43813;SDS011;29669;55.706;37.656;2023-10-09T12:17:15;2.85;;;1.98;;
43813;SDS011;29669;55.706;37.656;2023-10-09T12:26:43;3.42;;;1.48;;
43813;SDS011;29669;55.706;37.656;2023-10-09T12:29:11;3.17;;;1.45;;
43813;SDS011;29669;55.706;37.656;2023-10-09T12:31:40;5.70;;;1.38;;
43813;SDS011;29669;55.706;37.656;2023-10-09T12:34:12;5.07;;;1.23;;
43813;SDS011;29669;55.706;37.656;2023-10-09T12:36:46;1.17;;;1.00;;
43813;SDS011;29669;55.706;37.656;2023-10-09T12:39:14;2.20;;;1.50;;
43813;SDS011;29669;55.706;37.656;2023-10-09T12:41:45;2.65;;;1.77;;
43813;SDS011;29669;55.706;37.656;2023-10-09T12:44:13;1.58;;;1.40;;
43813;SDS011;29669;55.706;37.656;2023-10-09T12:46:50;2.42;;;1.20;;
43813;SDS011;29669;55.706;37.656;2023-10-09T12:49:21;3.38;;;1.52;;
43813;SDS011;29669;55.706;37.656;2023-10-09T12:51:53;2.00;;;1.45;;
43813;SDS011;29669;55.706;37.656;2023-10-09T12:54:22;3.63;;;1.48;;
43813;SDS011;29669;55.706;37.656;2023-10-09T12:56:55;1.60;;;1.35;;
43813;SDS011;29669;55.706;37.656;2023-10-09T12:59:25;2.15;;;1.33;;
43813;SDS011;29669;55.706;37.656;2023-10-09T13:01:53;2.97;;;1.40;;
43813;SDS011;29669;55.706;37.656;2023-10-09T13:04:25;1.77;;;1.15;;
43813;SDS011;29669;55.706;37.656;2023-10-09T13:06:59;1.30;;;1.15;;
43813;SDS011;29669;55.706;37.656;2023-10-09T13:09:32;1.50;;;1.20;;
43813;SDS011;29669;55.706;37.656;2023-10-09T13:12:10;2.42;;;0.98;;
43813;SDS011;29669;55.706;37.656;2023-10-09T13:14:46;1.88;;;1.50;;
43813;SDS011;29669;55.706;37.656;2023-10-09T13:17:17;1.45;;;1.30;;
43813;SDS011;29669;55.706;37.656;2023-10-09T13:19:48;1.17;;;1.08;;
43813;SDS011;29669;55.706;37.656;2023-10-09T13:22:16;3.83;;;1.15;;
43813;SDS011;29669;55.706;37.656;2023-10-09T13:24:48;1.40;;;1.30;;
43813;SDS011;29669;55.706;37.656;2023-10-09T13:27:20;1.48;;;1.20;;
43813;SDS011;29669;55.706;37.656;2023-10-09T13:29:49;4.85;;;1.50;;
43813;SDS011;29669;55.706;37.656;2023-10-09T13:32:23;2.53;;;2.33;;
43813;SDS011;29669;55.706;37.656;2023-10-09T13:34:57;1.27;;;1.17;;
43813;SDS011;29669;55.706;37.656;2023-10-09T13:37:30;0.85;;;0.85;;
43813;SDS011;29669;55.706;37.656;2023-10-09T13:40:04;1.80;;;1.25;;
43813;SDS011;29669;55.706;37.656;2023-10-09T13:42:49;2.92;;;0.90;;
43813;SDS011;29669;55.706;37.656;2023-10-09T13:45:17;1.48;;;1.30;;
43813;SDS011;29669;55.706;37.656;2023-10-09T13:47:45;7.43;;;1.90;;
43813;SDS011;29669;55.706;37.656;2023-10-09T13:50:13;2.50;;;1.13;;
43813;SDS011;29669;55.706;37.656;2023-10-09T13:52:41;2.50;;;1.17;;
43813;SDS011;29669;55.706;37.656;2023-10-09T13:55:09;2.67;;;1.27;;
43813;SDS011;29669;55.706;37.656;2023-10-09T13:57:43;2.80;;;1.30;;
43813;SDS011;29669;55.706;37.656;2023-10-09T14:00:14;3.30;;;1.52;;
43813;SDS011;29669;55.706;37.656;2023-10-09T14:03:01;2.35;;;1.48;;
43813;SDS011;29669;55.706;37.656;2023-10-09T14:05:31;1.80;;;1.48;;
43813;SDS011;29669;55.706;37.656;2023-10-09T14:07:58;5.10;;;1.88;;
43813;SDS011;29669;55.706;37.656;2023-10-09T14:10:31;2.80;;;1.75;;
43813;SDS011;29669;55.706;37.656;2023-10-09T14:13:00;3.05;;;1.85;;
43813;SDS011;29669;55.706;37.656;2023-10-09T14:15:41;2.38;;;1.70;;
43813;SDS011;29669;55.706;37.656;2023-10-09T14:18:10;1.70;;;1.30;;
43813;SDS011;29669;55.706;37.656;2023-10-09T14:20:39;3.30;;;1.67;;
43813;SDS011;29669;55.706;37.656;2023-10-09T14:23:08;5.18;;;2.55;;
43813;SDS011;29669;55.706;37.656;2023-10-09T14:25:40;3.05;;;1.92;;
43813;SDS011;29669;55.706;37.656;2023-10-09T14:28:14;2.90;;;2.13;;
43813;SDS011;29669;55.706;37.656;2023-10-09T14:30:48;1.63;;;1.17;;
43813;SDS011;29669;55.706;37.656;2023-10-09T14:33:28;2.25;;;1.55;;
43813;SDS011;29669;55.706;37.656;2023-10-09T14:36:05;3.22;;;0.93;;
43813;SDS011;29669;55.706;37.656;2023-10-09T14:38:34;3.65;;;2.05;;
43813;SDS011;29669;55.706;37.656;2023-10-09T14:41:06;2.60;;;1.40;;
43813;SDS011;29669;55.706;37.656;2023-10-09T14:43:39;3.00;;;1.83;;
43813;SDS011;29669;55.706;37.656;2023-10-09T14:46:12;3.67;;;1.67;;
43813;SDS011;29669;55.706;37.656;2023-10-09T14:48:41;2.20;;;1.33;;
43813;SDS011;29669;55.706;37.656;2023-10-09T14:51:13;3.28;;;1.80;;
43813;SDS011;29669;55.706;37.656;2023-10-09T14:53:41;3.05;;;1.92;;
43813;SDS011;29669;55.706;37.656;2023-10-09T14:56:11;3.15;;;2.25;;
43813;SDS011;29669;55.706;37.656;2023-10-09T14:58:43;7.25;;;2.10;;
43813;SDS011;29669;55.706;37.656;2023-10-09T15:01:14;30.50;;;3.13;;
43813;SDS011;29669;55.706;37.656;2023-10-09T15:03:47;5.32;;;2.67;;
43813;SDS011;29669;55.706;37.656;2023-10-09T15:06:17;17.80;;;2.35;;
43813;SDS011;29669;55.706;37.656;2023-10-09T15:08:46;8.02;;;2.25;;
43813;SDS011;29669;55.706;37.656;2023-10-09T15:11:16;4.30;;;2.22;;
43813;SDS011;29669;55.706;37.656;2023-10-09T15:13:56;6.20;;;2.00;;
43813;SDS011;29669;55.706;37.656;2023-10-09T15:16:25;5.32;;;2.00;;
43813;SDS011;29669;55.706;37.656;2023-10-09T15:18:57;4.80;;;2.42;;
43813;SDS011;29669;55.706;37.656;2023-10-09T15:21:30;4.65;;;2.42;;
43813;SDS011;29669;55.706;37.656;2023-10-09T15:24:01;4.05;;;2.20;;
43813;SDS011;29669;55.706;37.656;2023-10-09T15:26:40;3.58;;;2.15;;
43813;SDS011;29669;55.706;37.656;2023-10-09T15:29:27;3.88;;;2.47;;
43813;SDS011;29669;55.706;37.656;2023-10-09T15:31:56;3.55;;;1.98;;
43813;SDS011;29669;55.706;37.656;2023-10-09T15:34:35;2.38;;;1.80;;
43813;SDS011;29669;55.706;37.656;2023-10-09T15:37:06;2.97;;;2.03;;
43813;SDS011;29669;55.706;37.656;2023-10-09T15:39:35;6.10;;;3.10;;
43813;SDS011;29669;55.706;37.656;2023-10-09T15:42:06;6.65;;;2.60;;
43813;SDS011;29669;55.706;37.656;2023-10-09T15:44:35;3.97;;;2.78;;
43813;SDS011;29669;55.706;37.656;2023-10-09T15:47:08;7.75;;;2.17;;
43813;SDS011;29669;55.706;37.656;2023-10-09T15:49:37;2.92;;;1.90;;
43813;SDS011;29669;55.706;37.656;2023-10-09T15:52:12;2.03;;;1.83;;
43813;SDS011;29669;55.706;37.656;2023-10-09T15:54:42;7.13;;;1.88;;
43813;SDS011;29669;55.706;37.656;2023-10-09T15:57:14;2.28;;;1.75;;
43813;SDS011;29669;55.706;37.656;2023-10-09T15:59:44;3.03;;;2.15;;
43813;SDS011;29669;55.706;37.656;2023-10-09T16:02:12;2.45;;;1.92;;
43813;SDS011;29669;55.706;37.656;2023-10-09T16:04:41;3.83;;;1.75;;
43813;SDS011;29669;55.706;37.656;2023-10-09T16:07:09;2.28;;;1.70;;
43813;SDS011;29669;55.706;37.656;2023-10-09T16:09:40;5.00;;;2.20;;
43813;SDS011;29669;55.706;37.656;2023-10-09T16:12:10;3.25;;;2.10;;
43813;SDS011;29669;55.706;37.656;2023-10-09T16:14:42;4.53;;;2.83;;
43813;SDS011;29669;55.706;37.656;2023-10-09T16:17:11;5.03;;;3.10;;
43813;SDS011;29669;55.706;37.656;2023-10-09T16:19:42;3.80;;;2.38;;
43813;SDS011;29669;55.706;37.656;2023-10-09T16:22:16;7.45;;;2.40;;
43813;SDS011;29669;55.706;37.656;2023-10-09T16:24:48;4.85;;;2.75;;
43813;SDS011;29669;55.706;37.656;2023-10-09T16:27:22;3.75;;;2.88;;
43813;SDS011;29669;55.706;37.656;2023-10-09T16:29:51;3.42;;;2.40;;
43813;SDS011;29669;55.706;37.656;2023-10-09T16:32:22;2.83;;;2.05;;
43813;SDS011;29669;55.706;37.656;2023-10-09T16:34:51;2.83;;;2.17;;
43813;SDS011;29669;55.706;37.656;2023-10-09T16:37:20;4.30;;;2.50;;
43813;SDS011;29669;55.706;37.656;2023-10-09T16:39:57;6.28;;;2.30;;
43813;SDS011;29669;55.706;37.656;2023-10-09T16:42:43;2.85;;;2.50;;
43813;SDS011;29669;55.706;37.656;2023-10-09T16:45:20;5.13;;;2.35;;
43813;SDS011;29669;55.706;37.656;2023-10-09T16:48:02;3.72;;;2.40;;
43813;SDS011;29669;55.706;37.656;2023-10-09T16:54:07;2.65;;;2.10;;
43813;SDS011;29669;55.706;37.656;2023-10-09T16:56:37;2.90;;;2.00;;
43813;SDS011;29669;55.706;37.656;2023-10-09T16:59:05;3.30;;;2.40;;
43813;SDS011;29669;55.706;37.656;2023-10-09T17:01:40;4.28;;;2.58;;
43813;SDS011;29669;55.706;37.656;2023-10-09T17:04:09;2.72;;;2.08;;
43813;SDS011;29669;55.706;37.656;2023-10-09T17:06:44;4.47;;;2.03;;
43813;SDS011;29669;55.706;37.656;2023-10-09T17:09:12;4.07;;;2.35;;
43813;SDS011;29669;55.706;37.656;2023-10-09T17:11:40;5.32;;;2.42;;
43813;SDS011;29669;55.706;37.656;2023-10-09T17:14:08;4.47;;;2.17;;
43813;SDS011;29669;55.706;37.656;2023-10-09T17:16:40;5.38;;;2.50;;
43813;SDS011;29669;55.706;37.656;2023-10-09T17:19:12;3.80;;;2.55;;
43813;SDS011;29669;55.706;37.656;2023-10-09T17:21:41;4.40;;;2.53;;
43813;SDS011;29669;55.706;37.656;2023-10-09T17:24:09;3.00;;;2.50;;
43813;SDS011;29669;55.706;37.656;2023-10-09T17:26:38;3.10;;;2.47;;
43813;SDS011;29669;55.706;37.656;2023-10-09T17:29:06;3.90;;;2.55;;
43813;SDS011;29669;55.706;37.656;2023-10-09T17:31:38;8.88;;;3.50;;
43813;SDS011;29669;55.706;37.656;2023-10-09T17:34:07;5.57;;;2.95;;
43813;SDS011;29669;55.706;37.656;2023-10-09T17:36:35;6.82;;;3.03;;
43813;SDS011;29669;55.706;37.656;2023-10-09T17:39:03;5.22;;;3.38;;
43813;SDS011;29669;55.706;37.656;2023-10-09T17:41:33;4.38;;;2.97;;
43813;SDS011;29669;55.706;37.656;2023-10-09T17:44:09;4.00;;;2.47;;
43813;SDS011;29669;55.706;37.656;2023-10-09T17:46:37;4.13;;;3.05;;